Time;durP1;ratioP1;P1;durP2;ratioP2;P2;SDS_P1;SDS_P2;PMS_P1;PMS_P2;Temp;Humidity;BMP_temperature;BMP_pressure;BME280_temperature;BME280_humidity;BME280_pressure;Samples;Min_cycle;Max_cycle;Signal;HPM_P1;HPM_P2
2022/07/06 00:01:50;;;;;;;3.87;3.57;;;;;;;25.92;51.10;99368.00;5051537;28;20661;-69
2022/07/06 00:04:17;;;;;;;6.50;3.73;;;;;;;25.87;51.47;99365.34;5052650;28;20200;-68
2022/07/06 00:06:44;;;;;;;4.43;3.97;;;;;;;25.47;53.02;99355.16;5053890;28;20193;-67
2022/07/06 00:09:11;;;;;;;8.40;4.43;;;;;;;25.49;53.57;99358.38;5053137;28;20201;-69
2022/07/06 00:11:38;;;;;;;4.87;4.37;;;;;;;25.18;55.46;99355.28;5053716;28;20189;-68
2022/07/06 00:14:05;;;;;;;8.70;5.27;;;;;;;24.85;57.14;99354.38;5053463;28;20657;-68
2022/07/06 00:16:31;;;;;;;6.60;5.93;;;;;;;24.52;59.13;99355.31;5053608;28;20629;-68
2022/07/06 00:19:00;;;;;;;7.60;5.37;;;;;;;24.17;60.57;99354.88;5053867;28;20678;-68
2022/07/06 00:21:26;;;;;;;7.37;5.80;;;;;;;23.92;62.13;99350.53;5053726;28;20235;-68
2022/07/06 00:23:53;;;;;;;7.47;6.50;;;;;;;23.75;62.99;99352.84;5053095;28;20630;-68
2022/07/06 00:26:20;;;;;;;5.87;5.57;;;;;;;23.54;63.57;99354.09;5053107;28;20263;-68
2022/07/06 00:28:47;;;;;;;6.50;5.90;;;;;;;23.69;62.75;99350.44;5053506;28;20200;-68
2022/07/06 00:31:14;;;;;;;6.23;5.40;;;;;;;23.75;62.35;99341.16;5052853;28;20249;-69
2022/07/06 00:33:41;;;;;;;5.63;5.10;;;;;;;23.88;61.84;99338.59;5052536;28;20198;-69
2022/07/06 00:36:09;;;;;;;9.60;5.20;;;;;;;23.99;61.93;99334.72;5053095;28;20262;-69
2022/07/06 00:38:36;;;;;;;8.13;5.13;;;;;;;24.13;61.48;99330.22;5052862;28;20257;-70
2022/07/06 00:41:02;;;;;;;7.13;5.50;;;;;;;24.40;60.71;99319.63;5052633;28;20231;-65
2022/07/06 00:43:29;;;;;;;9.67;5.37;;;;;;;24.65;60.32;99319.31;5052321;28;20203;-66
2022/07/06 00:45:56;;;;;;;12.13;5.87;;;;;;;24.72;59.54;99314.34;5052566;28;20663;-65
2022/07/06 00:48:22;;;;;;;5.13;4.67;;;;;;;24.76;59.43;99315.38;5052977;28;20199;-66
2022/07/06 00:50:49;;;;;;;6.90;4.97;;;;;;;25.06;57.98;99310.63;5051934;28;20679;-67
2022/07/06 00:53:17;;;;;;;7.10;4.90;;;;;;;25.06;58.00;99313.34;5052811;28;20624;-68
2022/07/06 00:55:44;;;;;;;5.97;4.90;;;;;;;25.28;57.99;99316.28;5052475;28;20196;-65
2022/07/06 00:58:12;;;;;;;10.33;5.67;;;;;;;25.61;56.58;99307.03;5053044;28;20645;-65
2022/07/06 01:00:44;;;;;;;6.50;5.40;;;;;;;25.85;55.53;99299.53;5051921;28;20279;-69
2022/07/06 01:03:11;;;;;;;6.37;4.40;;;;;;;25.73;55.13;99293.75;5052281;28;20189;-69
2022/07/06 01:05:37;;;;;;;6.47;5.00;;;;;;;25.76;55.46;99293.16;5051199;28;20664;-70
2022/07/06 01:08:05;;;;;;;5.47;4.47;;;;;;;25.77;54.83;99283.88;5051675;28;20621;-69
2022/07/06 01:10:33;;;;;;;6.50;4.63;;;;;;;25.71;54.85;99274.19;5051647;28;20248;-69
2022/07/06 01:13:00;;;;;;;5.07;4.30;;;;;;;25.74;54.42;99262.72;5051088;28;20201;-69
2022/07/06 01:15:27;;;;;;;5.63;4.67;;;;;;;25.95;54.63;99258.53;5051108;28;20246;-68
2022/07/06 01:17:54;;;;;;;7.30;4.77;;;;;;;26.06;53.38;99259.97;5050178;28;20730;-69
2022/07/06 01:20:24;;;;;;;6.67;4.50;;;;;;;26.12;53.73;99259.56;5050988;28;20194;-68
2022/07/06 01:22:53;;;;;;;4.33;4.03;;;;;;;26.16;53.74;99254.28;5051037;28;20643;-70
2022/07/06 01:25:21;;;;;;;12.97;5.43;;;;;;;26.27;53.06;99250.28;5051033;28;20196;-69
2022/07/06 01:27:48;;;;;;;7.40;4.47;;;;;;;26.32;53.07;99247.44;5050852;28;20192;-69
2022/07/06 01:30:17;;;;;;;5.00;4.43;;;;;;;26.39;53.25;99247.84;5051936;28;20201;-69
2022/07/06 01:32:44;;;;;;;5.40;4.30;;;;;;;26.43;52.75;99244.22;5051867;28;20200;-70
2022/07/06 01:35:14;;;;;;;7.23;4.23;;;;;;;26.45;52.52;99231.06;5051052;28;20275;-70
2022/07/06 01:37:43;;;;;;;6.57;4.30;;;;;;;26.48;52.94;99224.22;5050942;28;20738;-69
2022/07/06 01:40:12;;;;;;;4.57;4.13;;;;;;;26.56;52.38;99224.31;5050200;28;20225;-69
2022/07/06 01:42:39;;;;;;;4.90;4.50;;;;;;;26.61;51.91;99223.41;5049963;28;20229;-70
2022/07/06 01:45:07;;;;;;;5.20;4.70;;;;;;;26.65;52.59;99213.50;5051554;28;20280;-70
2022/07/06 01:47:34;;;;;;;4.57;4.17;;;;;;;26.70;51.58;99216.91;5050293;28;20188;-70
2022/07/06 01:50:04;;;;;;;6.13;4.60;;;;;;;26.67;51.88;99206.66;5050844;28;20201;-69
2022/07/06 01:52:31;;;;;;;5.60;4.20;;;;;;;26.71;51.96;99206.84;5049745;28;20792;-69
2022/07/06 01:54:59;;;;;;;4.73;4.13;;;;;;;26.73;51.86;99210.03;5051015;28;20188;-70
2022/07/06 01:57:26;;;;;;;8.23;4.63;;;;;;;26.70;51.92;99207.94;5049473;28;20754;-70
2022/07/06 01:59:53;;;;;;;5.07;4.43;;;;;;;26.71;51.83;99207.63;5050607;28;20220;-69
2022/07/06 02:02:19;;;;;;;8.03;4.50;;;;;;;26.74;51.80;99200.78;5050462;28;20290;-70
2022/07/06 02:04:46;;;;;;;5.73;4.13;;;;;;;26.65;51.95;99197.97;5051542;28;20200;-68
2022/07/06 02:07:13;;;;;;;4.57;4.23;;;;;;;26.51;52.71;99193.63;5051019;28;20254;-69
2022/07/06 02:09:39;;;;;;;4.93;4.50;;;;;;;26.41;52.44;99191.94;5051025;28;20205;-69
2022/07/06 02:12:08;;;;;;;7.00;4.23;;;;;;;26.32;52.70;99188.31;5051627;28;20196;-68
2022/07/06 02:14:35;;;;;;;8.43;4.83;;;;;;;26.26;53.17;99191.47;5051029;28;20219;-69
2022/07/06 02:17:01;;;;;;;9.70;4.33;;;;;;;26.17;53.12;99185.13;5050940;28;20192;-70
2022/07/06 02:19:28;;;;;;;5.20;4.57;;;;;;;26.05;53.46;99180.19;5050927;28;20216;-68
2022/07/06 02:21:55;;;;;;;4.63;4.20;;;;;;;25.96;53.90;99181.22;5050230;28;20200;-69
2022/07/06 02:24:22;;;;;;;7.93;4.17;;;;;;;25.88;53.29;99181.91;5051177;28;20192;-70
2022/07/06 02:26:49;;;;;;;4.47;4.07;;;;;;;25.81;53.96;99181.50;5051212;28;20279;-68
2022/07/06 02:29:17;;;;;;;10.47;4.47;;;;;;;25.74;54.68;99183.81;5050955;28;20196;-67
2022/07/06 02:31:43;;;;;;;6.80;3.87;;;;;;;25.88;54.84;99187.34;5050409;28;20192;-67
2022/07/06 02:34:10;;;;;;;4.67;4.23;;;;;;;26.03;54.13;99192.50;5050750;28;20636;-67
2022/07/06 02:36:37;;;;;;;5.23;3.80;;;;;;;26.15;53.13;99192.78;5050245;28;20266;-67
2022/07/06 02:39:04;;;;;;;7.47;4.40;;;;;;;26.25;53.17;99198.03;5051200;28;20216;-67
2022/07/06 02:41:30;;;;;;;7.97;4.20;;;;;;;26.25;52.99;99198.81;5050670;28;20278;-67
2022/07/06 02:43:57;;;;;;;4.60;4.10;;;;;;;26.21;53.49;99206.00;5049722;28;20676;-67
2022/07/06 02:46:25;;;;;;;6.30;4.50;;;;;;;26.21;53.68;99208.72;5050702;28;20263;-69
2022/07/06 02:48:52;;;;;;;5.13;4.70;;;;;;;26.30;53.38;99209.59;5049516;28;20201;-68
2022/07/06 02:51:19;;;;;;;6.03;4.43;;;;;;;26.48;53.06;99207.84;5050832;28;20243;-68
2022/07/06 02:53:45;;;;;;;12.30;4.40;;;;;;;26.52;52.74;99211.59;5050661;28;20205;-68
2022/07/06 02:56:12;;;;;;;7.60;4.40;;;;;;;26.49;53.22;99214.91;5050676;28;20603;-67
2022/07/06 02:58:39;;;;;;;4.97;4.13;;;;;;;26.72;52.42;99213.88;5054487;28;20220;-68
2022/07/06 03:01:06;;;;;;;5.60;4.50;;;;;;;26.92;51.71;99225.13;5055135;28;20196;-68
2022/07/06 03:03:34;;;;;;;5.60;4.53;;;;;;;26.97;51.97;99226.91;5054717;28;20199;-69
2022/07/06 03:06:01;;;;;;;6.13;4.63;;;;;;;27.12;51.13;99234.75;5053801;28;20203;-68
2022/07/06 03:08:27;;;;;;;4.60;4.07;;;;;;;27.15;51.37;99229.47;5054326;28;20250;-68
2022/07/06 03:10:54;;;;;;;5.37;4.87;;;;;;;27.22;50.59;99229.88;5053531;28;20204;-68
2022/07/06 03:13:21;;;;;;;6.93;4.80;;;;;;;27.13;51.14;99225.44;5054417;28;20330;-68
2022/07/06 03:15:47;;;;;;;4.47;4.03;;;;;;;27.17;51.03;99232.69;5053922;28;20201;-68
2022/07/06 03:18:14;;;;;;;5.50;5.00;;;;;;;27.23;51.12;99230.69;5053741;28;20272;-68
2022/07/06 03:20:42;;;;;;;7.70;4.40;;;;;;;27.43;50.44;99236.41;5052014;28;20290;-68
2022/07/06 03:23:09;;;;;;;7.17;4.80;;;;;;;27.62;50.10;99238.94;5053105;28;20578;-69
2022/07/06 03:25:36;;;;;;;10.73;5.63;;;;;;;27.64;49.57;99247.63;5052936;28;20266;-69
2022/07/06 03:28:02;;;;;;;9.37;5.63;;;;;;;27.22;50.74;99251.69;5052952;28;20192;-69
2022/07/06 03:30:29;;;;;;;11.43;4.70;;;;;;;27.13;51.33;99249.97;5053596;28;20254;-70
2022/07/06 03:32:56;;;;;;;5.20;4.60;;;;;;;27.04;51.04;99246.38;5053514;28;20250;-70
2022/07/06 03:35:23;;;;;;;5.37;4.73;;;;;;;27.01;50.75;99244.28;5053351;28;20192;-69
2022/07/06 03:37:51;;;;;;;7.17;4.87;;;;;;;26.70;50.83;99237.94;5053032;28;20207;-69
2022/07/06 03:40:18;;;;;;;12.87;4.67;;;;;;;26.58;51.47;99234.94;5053084;28;20671;-69
2022/07/06 03:42:45;;;;;;;4.63;4.33;;;;;;;26.60;51.92;99243.59;5053325;28;20700;-69
2022/07/06 03:45:12;;;;;;;7.63;5.00;;;;;;;26.78;51.42;99245.38;5053812;28;20197;-70
2022/07/06 03:47:39;;;;;;;8.47;4.70;;;;;;;27.11;50.94;99250.28;5054388;28;20276;-70
2022/07/06 03:50:06;;;;;;;9.70;5.13;;;;;;;27.41;50.01;99260.50;5053233;28;20200;-71
2022/07/06 03:52:34;;;;;;;10.70;4.93;;;;;;;27.33;49.86;99263.16;5053399;28;20262;-69
2022/07/06 03:55:02;;;;;;;9.57;5.30;;;;;;;27.19;50.98;99262.41;5052526;28;20589;-71
2022/07/06 03:57:29;;;;;;;8.63;5.40;;;;;;;27.07;51.88;99256.69;5052234;28;20197;-68
2022/07/06 03:59:56;;;;;;;6.57;5.73;;;;;;;27.09;52.36;99251.72;5052331;28;20256;-74
2022/07/06 04:02:23;;;;;;;8.60;5.57;;;;;;;27.01;53.60;99247.00;5052409;28;20569;-74
2022/07/06 04:04:49;;;;;;;10.17;5.67;;;;;;;26.84;54.48;99249.59;5052853;28;20197;-74
2022/07/06 04:07:16;;;;;;;8.90;5.97;;;;;;;26.70;55.23;99235.19;5053269;28;20192;-73
2022/07/06 04:09:43;;;;;;;8.33;5.80;;;;;;;26.53;55.79;99240.44;5053217;28;20258;-73
2022/07/06 04:12:11;;;;;;;7.90;7.10;;;;;;;26.17;58.05;99239.59;5052975;28;20196;-73
2022/07/06 04:14:37;;;;;;;8.43;7.40;;;;;;;26.15;59.40;99236.34;5052613;28;20200;-74
2022/07/06 04:17:51;;;;;;;8.47;7.03;;;;;;;26.25;59.23;99236.16;5052027;28;20203;-74
2022/07/06 04:19:51;;;;;;;8.20;6.53;;;;;;;26.20;59.86;99236.25;5052118;28;20263;-74
2022/07/06 04:22:18;;;;;;;7.40;6.90;;;;;;;26.44;60.26;99240.38;5051275;28;20250;-74
2022/07/06 04:24:44;;;;;;;11.70;7.77;;;;;;;26.89;58.28;99244.00;5051889;28;20657;-75
2022/07/06 04:27:13;;;;;;;6.53;6.03;;;;;;;27.60;56.48;99244.72;5051288;28;20672;-74
2022/07/06 04:29:39;;;;;;;9.73;7.23;;;;;;;28.39;53.87;99253.72;5052237;28;20199;-72
2022/07/06 04:32:07;;;;;;;9.53;6.27;;;;;;;28.65;53.05;99251.88;5052125;28;20197;-73
2022/07/06 04:34:34;;;;;;;8.57;6.37;;;;;;;28.38;53.51;99246.66;5052363;28;20193;-74
2022/07/06 04:37:00;;;;;;;7.67;6.93;;;;;;;28.20;53.88;99247.72;5051769;28;20625;-73
2022/07/06 04:39:27;;;;;;;8.43;6.50;;;;;;;28.05;54.34;99253.63;5051563;28;20696;-73
2022/07/06 04:41:54;;;;;;;6.87;6.20;;;;;;;28.37;54.76;99250.50;5052212;28;20229;-73
2022/07/06 04:44:22;;;;;;;9.23;6.53;;;;;;;28.92;52.84;99257.06;5051476;28;20192;-72
2022/07/06 04:46:49;;;;;;;7.07;6.47;;;;;;;29.28;51.82;99246.63;5052286;28;20192;-73
2022/07/06 04:49:15;;;;;;;22.50;7.73;;;;;;;29.32;51.74;99250.31;5051511;28;20687;-73
2022/07/06 04:51:42;;;;;;;10.43;7.07;;;;;;;29.16;51.62;99247.25;5052074;28;20238;-73
2022/07/06 04:54:09;;;;;;;7.47;6.77;;;;;;;28.99;52.53;99249.19;5051281;28;20726;-73
2022/07/06 04:56:35;;;;;;;6.70;5.23;;;;;;;28.52;53.54;99250.09;5051548;28;20253;-73
2022/07/06 04:59:02;;;;;;;12.90;6.23;;;;;;;28.06;54.72;99249.78;5051754;28;20200;-73
2022/07/06 05:01:30;;;;;;;7.37;6.30;;;;;;;28.01;55.46;99253.44;5051433;28;20196;-72
2022/07/06 05:03:57;;;;;;;8.67;6.47;;;;;;;27.89;55.44;99252.44;5051010;28;20227;-73
2022/07/06 05:06:24;;;;;;;8.73;6.40;;;;;;;27.67;55.64;99266.09;5050004;28;20193;-73
2022/07/06 05:08:50;;;;;;;7.97;6.10;;;;;;;27.16;57.56;99249.38;5051573;28;20199;-72
2022/07/06 05:11:17;;;;;;;7.73;6.30;;;;;;;27.17;58.15;99253.69;5050012;28;20718;-73
2022/07/06 05:13:44;;;;;;;6.67;6.07;;;;;;;27.34;57.71;99253.84;5051173;28;20806;-73
2022/07/06 05:16:11;;;;;;;6.90;6.27;;;;;;;27.40;57.45;99253.41;5051428;28;20197;-72
2022/07/06 05:18:39;;;;;;;7.43;6.73;;;;;;;27.17;58.39;99259.97;5051569;28;20197;-72
2022/07/06 05:21:05;;;;;;;10.10;7.17;;;;;;;27.02;58.87;99268.50;5050455;28;20696;-72
2022/07/06 05:23:32;;;;;;;9.47;6.93;;;;;;;26.97;59.13;99265.09;5051878;28;20246;-73
2022/07/06 05:25:59;;;;;;;9.03;6.83;;;;;;;26.79;60.05;99268.78;5051691;28;20196;-69
2022/07/06 05:28:26;;;;;;;9.47;6.90;;;;;;;27.03;59.24;99272.84;5050710;28;20331;-70
2022/07/06 05:30:52;;;;;;;10.07;6.60;;;;;;;27.08;59.53;99282.84;5050513;28;20577;-67
2022/07/06 05:33:19;;;;;;;8.70;6.40;;;;;;;27.12;59.38;99272.91;5043577;28;20614;-68
2022/07/06 05:35:47;;;;;;;9.40;7.23;;;;;;;26.98;60.46;99280.31;5050595;28;20197;-67
2022/07/06 05:38:14;;;;;;;7.37;6.43;;;;;;;27.29;59.52;99284.00;5051313;28;20200;-67
2022/07/06 05:40:41;;;;;;;11.23;6.70;;;;;;;27.45;58.54;99287.97;5050409;28;20209;-67
2022/07/06 05:43:08;;;;;;;10.77;6.30;;;;;;;27.81;57.59;99291.41;5051002;28;20191;-67
2022/07/06 05:45:35;;;;;;;10.33;6.43;;;;;;;27.89;56.71;99298.88;5036955;28;20197;-68
2022/07/06 05:50:47;;;;;;;7.03;6.53;;;;;;;28.54;55.14;99297.06;5046485;28;20277;-68
2022/07/06 05:53:14;;;;;;;9.53;6.30;;;;;;;28.61;54.84;99291.91;5044070;28;20190;-68
2022/07/06 05:55:40;;;;;;;20.40;6.40;;;;;;;28.53;54.45;99303.63;5029598;28;20193;-68
2022/07/06 05:58:07;;;;;;;7.17;6.20;;;;;;;28.79;53.96;99297.09;5043731;28;20810;-69
2022/07/06 06:00:34;;;;;;;11.83;6.73;;;;;;;28.67;54.14;99301.59;5050290;28;20216;-71
2022/07/06 06:03:01;;;;;;;11.63;6.73;;;;;;;28.45;54.99;99309.88;5035876;28;20193;-71
2022/07/06 06:05:27;;;;;;;11.70;6.30;;;;;;;28.13;56.18;99302.03;5030575;28;20193;-71
2022/07/06 06:07:55;;;;;;;19.73;7.10;;;;;;;28.22;56.50;99297.41;5047031;28;20625;-71
2022/07/06 06:10:23;;;;;;;8.57;7.47;;;;;;;28.51;55.49;99303.94;5050194;28;20672;-71
2022/07/06 06:12:50;;;;;;;11.20;7.37;;;;;;;28.56;55.57;99309.28;5049431;28;20192;-71
2022/07/06 06:15:17;;;;;;;7.07;6.53;;;;;;;29.11;53.83;99309.53;5050351;28;20196;-70
2022/07/06 06:17:44;;;;;;;10.07;7.07;;;;;;;29.50;52.61;99312.09;5050156;28;20188;-70
2022/07/06 06:20:13;;;;;;;7.40;6.73;;;;;;;29.93;51.61;99318.31;5033662;28;20270;-70
2022/07/06 06:22:48;;;;;;;12.50;6.80;;;;;;;30.54;51.74;99319.72;5044481;28;20202;-72
2022/07/06 06:25:18;;;;;;;7.67;6.60;;;;;;;31.16;48.13;99329.69;5050898;28;20196;-68
2022/07/06 06:27:45;;;;;;;9.70;6.17;;;;;;;31.43;47.06;99328.34;5050469;28;20185;-69
2022/07/06 06:30:13;;;;;;;7.20;6.60;;;;;;;31.05;47.54;99324.91;5050410;28;20208;-70
2022/07/06 06:32:40;;;;;;;12.20;6.70;;;;;;;30.94;47.58;99319.00;5052019;28;20726;-69
2022/07/06 06:35:08;;;;;;;9.10;7.07;;;;;;;31.00;47.37;99317.69;5052080;28;20204;-69
2022/07/06 06:37:35;;;;;;;9.87;6.77;;;;;;;30.72;47.68;99316.59;5052529;28;20254;-76
2022/07/06 06:40:02;;;;;;;8.67;6.93;;;;;;;30.50;48.28;99316.81;5053462;28;20259;-74
2022/07/06 06:42:30;;;;;;;10.97;6.50;;;;;;;30.23;49.35;99316.47;5052088;28;20224;-68
2022/07/06 06:44:56;;;;;;;7.53;6.80;;;;;;;30.18;49.84;99320.22;5052836;28;20208;-73
2022/07/06 06:47:23;;;;;;;17.17;6.73;;;;;;;30.05;50.24;99321.19;5053577;28;20741;-74
2022/07/06 06:49:50;;;;;;;7.27;6.37;;;;;;;29.74;50.91;99317.09;5053554;28;20200;-74
2022/07/06 06:52:17;;;;;;;14.67;7.13;;;;;;;29.41;51.45;99314.06;5052859;28;20200;-73
2022/07/06 06:54:43;;;;;;;14.77;8.53;;;;;;;29.53;51.52;99311.47;5033997;28;20255;-73
2022/07/06 06:57:10;;;;;;;12.93;8.00;;;;;;;29.75;50.58;99324.97;5032239;28;20221;-74
2022/07/06 06:59:38;;;;;;;10.97;7.27;;;;;;;29.67;50.76;99312.09;5033465;28;20204;-72
2022/07/06 07:02:05;;;;;;;12.83;7.97;;;;;;;29.71;50.32;99317.72;5031174;28;20735;-73
2022/07/06 07:04:31;;;;;;;15.30;7.60;;;;;;;30.06;50.16;99319.25;5032700;28;20262;-74
2022/07/06 07:06:58;;;;;;;8.03;7.30;;;;;;;30.25;48.33;99304.06;5031310;28;20193;-72
2022/07/06 07:09:25;;;;;;;86.57;11.23;;;;;;;30.69;47.69;99310.94;5044066;28;20584;-78
2022/07/06 07:11:52;;;;;;;19.97;8.13;;;;;;;30.13;48.44;99309.38;5052495;28;20684;-74
2022/07/06 07:14:19;;;;;;;10.50;7.83;;;;;;;30.16;48.52;99311.50;5052186;28;20197;-73
2022/07/06 07:16:47;;;;;;;11.60;8.97;;;;;;;30.20;48.46;99306.97;5053021;28;20602;-75
2022/07/06 07:19:13;;;;;;;11.27;7.63;;;;;;;30.19;48.60;99302.63;5051806;28;20193;-75
2022/07/06 07:21:40;;;;;;;32.30;9.97;;;;;;;30.36;49.40;99305.31;5052542;28;20228;-76
2022/07/06 07:24:08;;;;;;;12.17;8.50;;;;;;;30.42;48.02;99308.66;5052486;28;20193;-75
2022/07/06 07:26:35;;;;;;;15.30;8.50;;;;;;;30.52;46.97;99311.84;5051902;28;20249;-74
2022/07/06 07:29:01;;;;;;;13.63;7.77;;;;;;;30.50;47.62;99314.09;5052274;28;20300;-75
2022/07/06 07:31:28;;;;;;;16.37;6.93;;;;;;;30.28;48.07;99299.84;5052301;28;20727;-69
2022/07/06 07:33:58;;;;;;;10.33;8.13;;;;;;;30.03;48.87;99307.03;5050899;28;20254;-71
2022/07/06 07:36:25;;;;;;;10.57;8.17;;;;;;;30.23;48.65;99306.34;5052948;28;20694;-70
2022/07/06 07:38:52;;;;;;;14.43;8.17;;;;;;;30.11;49.02;99310.84;5052138;28;20205;-70
2022/07/06 07:41:19;;;;;;;17.13;8.40;;;;;;;30.24;48.82;99299.72;5049765;28;20282;-72
2022/07/06 07:43:46;;;;;;;10.10;8.20;;;;;;;30.22;49.51;99307.47;5051967;28;20274;-70
2022/07/06 07:46:12;;;;;;;11.77;8.27;;;;;;;29.71;50.15;99307.59;5052568;28;20255;-70
2022/07/06 07:48:39;;;;;;;9.53;8.33;;;;;;;29.40;50.85;99306.97;5051299;28;20263;-69
2022/07/06 07:51:07;;;;;;;9.87;9.00;;;;;;;29.11;51.52;99310.34;5052832;28;20668;-69
2022/07/06 07:53:34;;;;;;;30.97;10.13;;;;;;;28.92;52.32;99309.03;5050947;28;20197;-69
2022/07/06 07:56:01;;;;;;;17.40;9.77;;;;;;;29.10;52.06;99305.19;5050666;28;20674;-68
2022/07/06 07:58:28;;;;;;;16.63;9.30;;;;;;;29.23;51.60;99297.97;5052612;28;20619;-71
2022/07/06 08:00:55;;;;;;;9.97;9.20;;;;;;;29.25;51.34;99304.72;5051687;28;20648;-69
2022/07/06 08:03:21;;;;;;;15.47;8.97;;;;;;;28.95;52.54;99294.72;5052332;28;20695;-69
2022/07/06 08:05:48;;;;;;;9.37;8.37;;;;;;;28.99;52.33;99299.25;5049427;28;20192;-70
2022/07/06 08:08:16;;;;;;;9.27;8.53;;;;;;;29.15;51.85;99291.34;5049972;28;20199;-68
2022/07/06 08:10:43;;;;;;;14.53;8.87;;;;;;;28.92;52.55;99295.34;5051368;28;20204;-68
2022/07/06 08:13:10;;;;;;;9.80;8.73;;;;;;;28.88;53.02;99289.69;5052282;28;20228;-68
2022/07/06 08:15:37;;;;;;;14.57;9.40;;;;;;;28.86;53.31;99289.22;5050253;28;20285;-69
2022/07/06 08:18:04;;;;;;;12.83;8.83;;;;;;;29.00;53.77;99294.59;5051907;28;20184;-70
2022/07/06 08:20:31;;;;;;;11.40;8.97;;;;;;;29.06;52.99;99301.50;5052553;28;20237;-67
2022/07/06 08:22:57;;;;;;;14.70;8.77;;;;;;;28.99;53.16;99295.69;5053434;28;20197;-66
2022/07/06 08:25:26;;;;;;;9.77;8.73;;;;;;;29.05;53.08;99288.94;5052956;28;20631;-67
2022/07/06 08:27:55;;;;;;;9.43;8.60;;;;;;;29.15;52.92;99285.88;5051423;28;20204;-69
2022/07/06 08:30:22;;;;;;;21.20;8.87;;;;;;;29.28;52.27;99290.41;5051672;28;20738;-72
2022/07/06 08:32:49;;;;;;;17.23;9.07;;;;;;;29.45;51.95;99292.31;5051915;28;20665;-67
2022/07/06 08:35:15;;;;;;;13.90;8.20;;;;;;;29.66;51.35;99283.13;5052347;28;20227;-69
2022/07/06 08:37:42;;;;;;;14.53;8.97;;;;;;;29.70;51.41;99289.56;5051866;28;20201;-67
2022/07/06 08:40:10;;;;;;;14.83;9.10;;;;;;;29.92;50.89;99286.59;5053139;28;20196;-68
2022/07/06 08:42:38;;;;;;;8.97;7.87;;;;;;;29.95;50.26;99291.41;5052332;28;20283;-69
2022/07/06 08:45:07;;;;;;;8.67;8.00;;;;;;;29.87;50.41;99294.97;5052576;28;20255;-70
2022/07/06 08:47:37;;;;;;;10.57;9.67;;;;;;;29.92;50.94;99286.59;5052272;28;20223;-68
2022/07/06 08:50:05;;;;;;;11.33;8.87;;;;;;;30.08;50.07;99292.34;5051289;28;20180;-70
2022/07/06 08:52:32;;;;;;;11.40;8.83;;;;;;;30.44;48.73;99292.66;5051355;28;20201;-68
2022/07/06 08:55:00;;;;;;;9.30;8.70;;;;;;;30.22;50.15;99285.53;5052894;28;20255;-70
2022/07/06 08:57:27;;;;;;;11.10;9.67;;;;;;;30.17;49.47;99293.16;5049935;28;20193;-71
2022/07/06 08:59:55;;;;;;;10.33;8.90;;;;;;;30.24;48.88;99283.25;5052172;28;20250;-70
2022/07/06 09:02:25;;;;;;;9.93;9.17;;;;;;;30.51;47.81;99287.47;5051291;28;20290;-67
2022/07/06 09:04:55;;;;;;;13.13;10.10;;;;;;;30.17;49.83;99282.97;5052059;28;20189;-68
2022/07/06 09:07:22;;;;;;;14.30;9.23;;;;;;;30.35;48.51;99295.47;5051764;28;20188;-67
2022/07/06 09:09:50;;;;;;;10.73;9.03;;;;;;;30.21;49.40;99285.88;5051926;28;20192;-69
2022/07/06 09:12:17;;;;;;;14.10;10.27;;;;;;;30.31;49.35;99288.22;5051058;28;20200;-69
2022/07/06 09:14:44;;;;;;;11.20;10.40;;;;;;;30.40;50.29;99287.06;5051025;28;20192;-68
2022/07/06 09:17:13;;;;;;;12.00;10.93;;;;;;;30.37;50.63;99293.19;5049221;28;20651;-68
2022/07/06 09:19:40;;;;;;;12.80;11.37;;;;;;;30.44;49.79;99288.00;5050271;28;20247;-68
2022/07/06 09:22:06;;;;;;;14.30;10.30;;;;;;;30.30;50.61;99292.94;5050265;28;20588;-63
2022/07/06 09:24:33;;;;;;;10.93;9.97;;;;;;;30.36;50.88;99291.59;5051117;28;20219;-64
2022/07/06 09:27:00;;;;;;;11.43;9.77;;;;;;;30.23;50.48;99302.78;5049679;28;20729;-66
2022/07/06 09:29:31;;;;;;;10.67;9.87;;;;;;;30.04;51.70;99289.44;5050191;28;20189;-63
2022/07/06 09:31:59;;;;;;;10.27;9.43;;;;;;;30.05;51.35;99291.03;5049536;28;20196;-64
2022/07/06 09:34:41;;;;;;;10.70;9.80;;;;;;;30.01;52.18;99290.09;5048906;28;20193;-63
2022/07/06 09:37:08;;;;;;;10.63;9.60;;;;;;;30.13;52.50;99287.47;5051500;28;20275;-62
2022/07/06 09:39:35;;;;;;;13.57;11.13;;;;;;;30.11;52.24;99289.75;5049419;28;20196;-62
2022/07/06 09:42:04;;;;;;;12.63;10.53;;;;;;;30.20;52.01;99284.25;5051204;28;20236;-63
2022/07/06 09:44:34;;;;;;;10.33;9.30;;;;;;;30.40;51.29;99287.06;5049692;28;20193;-64
2022/07/06 09:47:02;;;;;;;11.70;9.60;;;;;;;30.36;50.81;99288.84;5050293;28;20854;-63
2022/07/06 09:49:31;;;;;;;10.53;9.63;;;;;;;30.04;50.99;99283.97;5049284;28;20188;-62
2022/07/06 09:51:59;;;;;;;9.63;8.93;;;;;;;30.24;51.23;99277.78;5049273;28;20208;-65
2022/07/06 09:54:26;;;;;;;9.87;9.17;;;;;;;30.49;50.76;99278.78;5049709;28;20246;-71
2022/07/06 09:56:54;;;;;;;16.07;10.23;;;;;;;30.19;50.99;99277.97;5049388;28;20200;-73
2022/07/06 09:59:24;;;;;;;18.10;10.67;;;;;;;30.50;50.40;99269.44;5051000;28;20242;-72
2022/07/06 10:01:54;;;;;;;10.50;9.03;;;;;;;30.64;49.96;99275.47;5050479;28;20215;-74
2022/07/06 10:04:21;;;;;;;11.03;10.03;;;;;;;30.72;49.45;99269.97;5050651;28;20188;-73
2022/07/06 10:06:52;;;;;;;9.37;8.47;;;;;;;30.74;49.04;99264.94;5050455;28;20246;-74
2022/07/06 10:09:20;;;;;;;9.57;8.83;;;;;;;30.82;48.62;99269.53;5050793;28;20184;-73
2022/07/06 10:11:50;;;;;;;11.03;9.20;;;;;;;30.83;48.71;99262.91;5050111;28;20249;-73
2022/07/06 10:14:20;;;;;;;12.90;9.53;;;;;;;30.81;48.33;99256.97;5050441;28;20254;-75
2022/07/06 10:16:48;;;;;;;10.67;8.90;;;;;;;31.06;48.23;99258.72;5050366;28;20246;-77
2022/07/06 10:19:17;;;;;;;11.37;8.77;;;;;;;31.23;47.37;99264.06;5051110;28;20189;-77
2022/07/06 10:21:46;;;;;;;10.17;9.30;;;;;;;31.39;46.77;99270.53;5049845;28;20285;-73
2022/07/06 10:24:14;;;;;;;9.57;8.77;;;;;;;31.53;46.32;99248.28;5050841;28;20219;-74
2022/07/06 10:26:42;;;;;;;11.37;9.07;;;;;;;31.71;45.48;99247.75;5050125;28;20188;-73
2022/07/06 10:29:09;;;;;;;32.63;10.07;;;;;;;31.92;45.11;99262.25;5050354;28;20660;-72
2022/07/06 10:31:40;;;;;;;9.27;8.57;;;;;;;32.30;44.67;99257.25;5049009;28;20196;-74
2022/07/06 10:34:09;;;;;;;9.13;8.33;;;;;;;32.59;41.91;99254.25;5050541;28;20180;-72
2022/07/06 10:36:38;;;;;;;8.50;7.90;;;;;;;32.78;42.90;99243.44;5049653;28;20201;-71
2022/07/06 10:41:02;;;;;;;9.53;8.03;;;;;;;33.05;42.21;99239.16;5050300;28;20228;-70
2022/07/06 10:41:54;;;;;;;11.87;8.30;;;;;;;33.32;40.84;99238.38;5050151;28;20234;-73
2022/07/06 10:44:24;;;;;;;9.53;7.50;;;;;;;33.27;40.24;99238.59;5048713;28;20193;-72
2022/07/06 10:46:53;;;;;;;10.50;7.90;;;;;;;33.33;39.65;99235.25;5049496;28;20200;-72
2022/07/06 10:49:21;;;;;;;8.40;7.47;;;;;;;33.51;40.20;99240.47;5049886;28;20279;-72
2022/07/06 10:51:49;;;;;;;11.52;8.43;;;;;;;33.72;39.50;99235.53;5049325;28;20301;-74
2022/07/06 10:54:17;;;;;;;7.78;7.13;;;;;;;33.75;38.56;99238.34;5049103;28;20193;-75
2022/07/06 10:56:45;;;;;;;8.43;7.43;;;;;;;34.05;37.10;99250.56;5049401;28;20545;-77
2022/07/06 10:59:14;;;;;;;7.60;6.80;;;;;;;34.07;37.53;99230.91;5049203;28;20200;-76
2022/07/06 11:02:02;;;;;;;21.48;7.68;;;;;;;34.12;36.90;99227.91;5049282;28;20341;-78
2022/07/06 11:04:32;;;;;;;18.02;8.07;;;;;;;33.79;37.52;99228.22;5048672;28;20204;-76
2022/07/06 11:07:09;;;;;;;13.68;8.18;;;;;;;33.99;38.03;99227.19;5049840;28;20315;-77
2022/07/06 11:09:36;;;;;;;8.88;7.28;;;;;;;34.11;36.77;99227.09;5048677;28;20188;-76
2022/07/06 11:12:13;;;;;;;8.00;7.30;;;;;;;34.08;37.54;99229.78;5048544;28;20196;-76
2022/07/06 11:14:41;;;;;;;11.57;7.63;;;;;;;34.23;37.19;99224.25;5049272;28;20283;-75
2022/07/06 11:17:11;;;;;;;7.65;7.22;;;;;;;34.43;36.30;99223.16;5048427;28;20259;-73
2022/07/06 11:19:38;;;;;;;7.65;7.05;;;;;;;34.58;35.47;99227.81;5043939;28;20255;-73
2022/07/06 11:22:09;;;;;;;7.53;6.88;;;;;;;34.57;35.21;99222.69;5033519;28;20251;-74
2022/07/06 11:24:38;;;;;;;9.60;6.30;;;;;;;34.39;35.27;99221.47;5033917;28;20189;-73
2022/07/06 11:27:07;;;;;;;9.00;6.85;;;;;;;33.96;35.91;99213.31;5032885;28;20280;-73
2022/07/06 11:29:36;;;;;;;7.00;6.45;;;;;;;33.82;36.18;99210.19;5033026;28;20634;-71
2022/07/06 11:32:09;;;;;;;7.20;6.65;;;;;;;33.84;37.36;99205.16;5032708;28;20263;-71
2022/07/06 11:34:37;;;;;;;7.97;6.25;;;;;;;33.67;36.46;99202.72;5032300;28;20196;-72